Time;durP1;ratioP1;P1;durP2;ratioP2;P2;SDS_P1;SDS_P2;PMS_P1;PMS_P2;Temp;Humidity;BMP_temperature;BMP_pressure;BME280_temperature;BME280_humidity;BME280_pressure;Samples;Min_cycle;Max_cycle;Signal;HPM_P1;HPM_P2
2022/09/05 00:02:29;;;;;;;;;;;18.60;97.20;;;;;;4939195;29;20401;-83
2022/09/05 00:04:59;;;;;;;;;;;18.60;97.10;;;;;;4943386;28;19926;-84
2022/09/05 00:07:29;;;;;;;;;;;18.60;97.10;;;;;;4935400;28;19926;-82
2022/09/05 00:10:01;;;;;;;;;;;18.50;97.00;;;;;;4944890;28;19927;-83
2022/09/05 00:12:30;;;;;;;;;;;18.50;97.00;;;;;;4938615;28;19935;-82
2022/09/05 00:15:02;;;;;;;;;;;18.50;97.00;;;;;;4943168;28;19934;-85
2022/09/05 00:17:36;;;;;;;;;;;18.50;97.00;;;;;;4920335;29;19926;-82
2022/09/05 00:20:06;;;;;;;;;;;18.40;97.00;;;;;;4929554;28;19934;-83
2022/09/05 00:22:37;;;;;;;;;;;18.40;97.00;;;;;;4938378;28;19927;-84
2022/09/05 00:25:08;;;;;;;;;;;18.40;97.00;;;;;;4925380;28;19942;-82
2022/09/05 00:27:39;;;;;;;;;;;18.40;96.90;;;;;;4927210;29;20437;-82
2022/09/05 00:30:09;;;;;;;;;;;18.40;96.90;;;;;;4922966;29;20481;-82
2022/09/05 00:33:05;;;;;;;;;;;18.30;96.90;;;;;;4939220;28;20309;-82
2022/09/05 00:35:42;;;;;;;;;;;18.30;96.90;;;;;;4943613;28;19927;-82
2022/09/05 00:38:11;;;;;;;;;;;18.30;96.90;;;;;;4944099;28;20642;-83
2022/09/05 00:40:41;;;;;;;;;;;18.30;96.90;;;;;;4945710;28;19930;-83
2022/09/05 00:43:11;;;;;;;;;;;18.20;96.90;;;;;;4941262;28;20318;-83
2022/09/05 00:45:39;;;;;;;;;;;18.20;96.90;;;;;;4929187;28;19985;-83
2022/09/05 00:48:12;;;;;;;;;;;18.20;97.00;;;;;;4942643;28;19950;-83
2022/09/05 00:50:46;;;;;;;;;;;18.20;97.00;;;;;;4928944;28;19934;-83
2022/09/05 00:53:16;;;;;;;;;;;18.20;97.00;;;;;;4945761;29;20029;-85
2022/09/05 00:55:48;;;;;;;;;;;18.10;97.00;;;;;;4938537;28;19930;-84
2022/09/05 00:58:27;;;;;;;;;;;18.10;97.00;;;;;;4940631;28;19931;-83
2022/09/05 01:00:55;;;;;;;;;;;18.10;97.00;;;;;;4930851;29;19926;-85
2022/09/05 01:03:36;;;;;;;;;;;18.10;97.00;;;;;;4925528;29;19990;-85
2022/09/05 01:06:14;;;;;;;;;;;18.10;97.10;;;;;;4934723;28;20476;-82
2022/09/05 01:08:48;;;;;;;;;;;18.10;97.30;;;;;;4930227;29;19941;-80
2022/09/05 01:11:19;;;;;;;;;;;18.00;97.00;;;;;;4939701;28;19969;-81
2022/09/05 01:13:51;;;;;;;;;;;18.00;97.00;;;;;;4935781;28;19931;-79
2022/09/05 01:16:22;;;;;;;;;;;18.00;97.00;;;;;;4937934;28;19989;-80
2022/09/05 01:18:56;;;;;;;;;;;18.00;97.00;;;;;;4921805;29;20404;-80
2022/09/05 01:21:32;;;;;;;;;;;17.90;97.00;;;;;;4937045;28;20967;-80
2022/09/05 01:24:13;;;;;;;;;;;17.90;97.00;;;;;;4941056;28;20297;-81
2022/09/05 01:26:55;;;;;;;;;;;17.90;97.00;;;;;;4921586;29;19934;-79
2022/09/05 01:29:27;;;;;;;;;;;17.90;97.00;;;;;;4918307;28;19930;-80
2022/09/05 01:32:07;;;;;;;;;;;17.90;97.00;;;;;;4935595;28;19935;-80
2022/09/05 01:34:54;;;;;;;;;;;17.80;97.00;;;;;;4927065;29;19942;-80
2022/09/05 01:37:22;;;;;;;;;;;17.80;97.00;;;;;;4940740;28;19938;-79
2022/09/05 01:39:57;;;;;;;;;;;17.80;97.00;;;;;;4943949;28;20397;-79
2022/09/05 01:42:31;;;;;;;;;;;17.80;97.00;;;;;;4922891;29;20390;-80
2022/09/05 01:45:02;;;;;;;;;;;17.70;97.00;;;;;;4940759;29;19930;-78
2022/09/05 01:47:38;;;;;;;;;;;17.70;97.00;;;;;;4928549;29;19930;-79
2022/09/05 01:50:12;;;;;;;;;;;17.70;97.00;;;;;;4945157;29;19934;-80
2022/09/05 01:52:45;;;;;;;;;;;17.70;97.00;;;;;;4939942;29;20021;-80
2022/09/05 01:55:18;;;;;;;;;;;17.70;97.00;;;;;;4937260;28;19934;-79
2022/09/05 01:57:48;;;;;;;;;;;17.60;96.90;;;;;;4921407;28;20422;-79
2022/09/05 02:00:17;;;;;;;;;;;17.60;96.90;;;;;;4938548;28;20058;-80
2022/09/05 02:02:52;;;;;;;;;;;17.60;96.90;;;;;;4942908;28;19926;-80
2022/09/05 02:05:33;;;;;;;;;;;17.60;96.90;;;;;;4941986;29;21424;-80
2022/09/05 02:08:22;;;;;;;;;;;17.50;96.90;;;;;;4940273;28;19972;-80
2022/09/05 02:11:01;;;;;;;;;;;17.50;96.90;;;;;;4921775;29;20009;-81
2022/09/05 02:13:39;;;;;;;;;;;17.50;97.00;;;;;;4926048;29;19934;-82
2022/09/05 02:16:12;;;;;;;;;;;17.50;97.00;;;;;;4926025;29;19926;-80
2022/09/05 02:18:47;;;;;;;;;;;17.50;96.90;;;;;;4943658;28;20366;-80
2022/09/05 02:21:18;;;;;;;;;;;17.50;97.00;;;;;;4939141;28;19927;-79
2022/09/05 02:23:48;;;;;;;;;;;17.50;97.00;;;;;;4945434;28;19926;-80
2022/09/05 02:26:17;;;;;;;;;;;17.40;97.00;;;;;;4937852;28;19938;-80
2022/09/05 02:28:48;;;;;;;;;;;17.40;97.00;;;;;;4943248;28;19965;-79
2022/09/05 02:31:20;;;;;;;;;;;17.40;97.00;;;;;;4921637;29;19934;-80
2022/09/05 02:33:50;;;;;;;;;;;17.30;96.90;;;;;;4946887;28;19982;-80
2022/09/05 02:36:22;;;;;;;;;;;17.30;97.00;;;;;;4937229;28;19934;-79
2022/09/05 02:38:54;;;;;;;;;;;17.30;97.00;;;;;;4943129;28;20010;-79
2022/09/05 02:41:25;;;;;;;;;;;17.30;97.00;;;;;;4928869;29;20305;-79
2022/09/05 02:43:57;;;;;;;;;;;17.30;97.00;;;;;;4940741;28;19927;-80
2022/09/05 02:46:28;;;;;;;;;;;17.30;97.00;;;;;;4941313;29;20345;-80
2022/09/05 02:49:01;;;;;;;;;;;17.20;96.90;;;;;;4941563;28;20005;-80
2022/09/05 02:51:32;;;;;;;;;;;17.20;97.00;;;;;;4938593;28;20368;-80
2022/09/05 02:54:01;;;;;;;;;;;17.20;97.00;;;;;;4924486;28;20019;-80
2022/09/05 02:56:31;;;;;;;;;;;17.20;97.00;;;;;;4940081;28;19940;-80
2022/09/05 02:59:02;;;;;;;;;;;17.20;97.00;;;;;;4942378;28;19934;-79
2022/09/05 03:01:44;;;;;;;;;;;17.20;97.00;;;;;;4942063;29;19931;-80
2022/09/05 03:04:22;;;;;;;;;;;17.20;97.00;;;;;;4942000;28;19930;-80
2022/09/05 03:06:55;;;;;;;;;;;17.20;97.00;;;;;;4939619;28;19938;-80
2022/09/05 03:09:29;;;;;;;;;;;17.10;97.00;;;;;;4938238;29;19962;-77
2022/09/05 03:12:17;;;;;;;;;;;17.10;97.00;;;;;;4940267;28;19958;-80
2022/09/05 03:15:03;;;;;;;;;;;17.10;97.00;;;;;;4939587;28;19981;-80
2022/09/05 03:17:53;;;;;;;;;;;17.00;97.00;;;;;;4942693;29;19930;-80
2022/09/05 03:20:35;;;;;;;;;;;17.00;97.00;;;;;;4923587;28;21373;-80
2022/09/05 03:23:23;;;;;;;;;;;17.00;97.00;;;;;;4946320;28;19926;-80
2022/09/05 03:26:06;;;;;;;;;;;17.00;97.00;;;;;;4939353;29;19927;-80
2022/09/05 03:28:51;;;;;;;;;;;17.00;97.10;;;;;;4938047;28;19969;-79
2022/09/05 03:31:24;;;;;;;;;;;17.00;97.10;;;;;;4926404;29;19926;-79
2022/09/05 03:34:12;;;;;;;;;;;16.90;97.00;;;;;;4939784;28;20464;-80
2022/09/05 03:36:53;;;;;;;;;;;16.90;97.00;;;;;;4921385;29;19927;-79
2022/09/05 03:39:45;;;;;;;;;;;16.90;97.10;;;;;;4943089;28;19956;-79
2022/09/05 03:42:21;;;;;;;;;;;16.90;97.10;;;;;;4936255;28;20709;-77
2022/09/05 03:44:56;;;;;;;;;;;16.90;97.10;;;;;;4920260;29;19931;-78
2022/09/05 03:47:32;;;;;;;;;;;16.90;97.10;;;;;;4943130;28;20134;-80
2022/09/05 03:50:12;;;;;;;;;;;16.90;97.10;;;;;;4944761;29;19927;-80
2022/09/05 03:52:49;;;;;;;;;;;16.80;97.10;;;;;;4940580;28;19931;-79
2022/09/05 03:55:23;;;;;;;;;;;16.80;97.10;;;;;;4939509;29;20195;-79
2022/09/05 03:58:09;;;;;;;;;;;16.80;97.20;;;;;;4943333;28;19931;-78
2022/09/05 04:00:37;;;;;;;;;;;16.90;97.20;;;;;;4936355;28;20377;-79
2022/09/05 04:03:09;;;;;;;;;;;16.80;97.20;;;;;;4934127;28;19957;-81
2022/09/05 04:05:37;;;;;;;;;;;16.80;97.10;;;;;;5006493;23;19934;-74
2022/09/05 04:08:08;;;;;;;;;;;16.80;97.10;;;;;;4994046;23;19990;-78
2022/09/05 04:10:39;;;;;;;;;;;16.70;97.10;;;;;;4923919;29;20075;-79
2022/09/05 04:13:14;;;;;;;;;;;16.70;97.20;;;;;;4929792;29;20445;-79
2022/09/05 04:15:42;;;;;;;;;;;16.70;97.10;;;;;;4948584;28;19977;-80
2022/09/05 04:18:20;;;;;;;;;;;16.60;97.10;;;;;;4944969;28;20430;-79
2022/09/05 04:20:49;;;;;;;;;;;16.60;97.00;;;;;;4945507;29;20290;-80
2022/09/05 04:23:23;;;;;;;;;;;16.60;97.00;;;;;;4949586;28;19933;-79
2022/09/05 04:25:54;;;;;;;;;;;16.60;97.00;;;;;;4950789;28;19962;-79
2022/09/05 04:28:31;;;;;;;;;;;16.50;97.00;;;;;;4936531;29;19927;-78
2022/09/05 04:31:03;;;;;;;;;;;16.50;97.10;;;;;;4934374;28;20361;-80
2022/09/05 04:33:32;;;;;;;;;;;16.50;97.10;;;;;;4948195;28;19926;-82
2022/09/05 04:36:11;;;;;;;;;;;16.50;97.00;;;;;;4940410;28;19926;-79
2022/09/05 04:38:39;;;;;;;;;;;16.40;97.00;;;;;;5015085;23;20461;-77
2022/09/05 04:41:09;;;;;;;;;;;16.40;97.10;;;;;;4942124;29;19930;-76
2022/09/05 04:43:40;;;;;;;;;;;16.40;97.20;;;;;;4944869;29;19933;-77
2022/09/05 04:46:10;;;;;;;;;;;16.40;97.20;;;;;;4931733;29;20496;-76
2022/09/05 04:48:41;;;;;;;;;;;16.40;97.20;;;;;;4928390;29;19926;-76
2022/09/05 04:51:09;;;;;;;;;;;16.40;97.20;;;;;;4950949;28;20352;-77
2022/09/05 04:53:45;;;;;;;;;;;16.40;97.20;;;;;;4934519;29;19926;-76
2022/09/05 04:56:15;;;;;;;;;;;16.30;97.20;;;;;;4927803;29;20325;-76
2022/09/05 04:58:44;;;;;;;;;;;16.30;97.20;;;;;;4947192;28;19926;-76
2022/09/05 05:01:14;;;;;;;;;;;16.30;97.20;;;;;;4950816;28;19926;-76
2022/09/05 05:03:42;;;;;;;;;;;16.20;97.10;;;;;;4946976;28;19926;-76
2022/09/05 05:06:10;;;;;;;;;;;16.20;97.20;;;;;;4944094;28;20460;-76
2022/09/05 05:08:42;;;;;;;;;;;16.10;97.30;;;;;;4942799;28;20021;-77
2022/09/05 05:11:12;;;;;;;;;;;16.00;97.40;;;;;;4946515;28;20293;-77
2022/09/05 05:13:43;;;;;;;;;;;16.00;97.40;;;;;;4947281;28;19965;-76
2022/09/05 05:16:14;;;;;;;;;;;16.00;97.50;;;;;;4946827;28;19927;-76
2022/09/05 05:18:44;;;;;;;;;;;16.00;97.50;;;;;;4954816;28;19982;-76
2022/09/05 05:21:14;;;;;;;;;;;16.00;97.90;;;;;;4955895;28;19938;-76
2022/09/05 05:23:43;;;;;;;;;;;16.00;97.70;;;;;;4931750;29;19934;-76
2022/09/05 05:26:12;;;;;;;;;;;15.90;97.70;;;;;;4943989;28;19938;-76
2022/09/05 05:28:44;;;;;;;;;;;15.90;97.70;;;;;;4953364;28;20186;-76
2022/09/05 05:31:13;;;;;;;;;;;15.90;97.80;;;;;;4946343;28;19958;-76
2022/09/05 05:33:40;;;;;;;;;;;15.90;97.90;;;;;;4938836;29;19956;-76
2022/09/05 05:36:09;;;;;;;;;;;15.90;97.90;;;;;;4951158;28;19933;-75
2022/09/05 05:38:42;;;;;;;;;;;15.90;97.90;;;;;;4945231;28;19934;-74
2022/09/05 05:41:14;;;;;;;;;;;15.90;97.90;;;;;;4948620;28;19931;-74
2022/09/05 05:43:42;;;;;;;;;;;15.90;97.90;;;;;;4941767;28;20300;-74
2022/09/05 05:46:11;;;;;;;;;;;15.90;98.10;;;;;;4949292;28;19989;-74
2022/09/05 05:48:40;;;;;;;;;;;15.80;98.00;;;;;;4948029;28;19926;-75
2022/09/05 05:51:16;;;;;;;;;;;15.90;98.10;;;;;;4950492;28;19954;-75
2022/09/05 05:53:46;;;;;;;;;;;15.90;98.10;;;;;;4935545;28;20029;-75
2022/09/05 05:56:21;;;;;;;;;;;15.90;98.00;;;;;;4928872;28;19954;-75
2022/09/05 05:59:08;;;;;;;;;;;15.90;98.10;;;;;;4949340;28;19966;-74
2022/09/05 06:01:55;;;;;;;;;;;15.80;98.10;;;;;;4953154;28;19937;-75
2022/09/05 06:04:46;;;;;;;;;;;15.80;98.20;;;;;;4950355;28;19937;-74
2022/09/05 06:07:21;;;;;;;;;;;15.80;98.30;;;;;;4943511;28;20452;-74
2022/09/05 06:10:12;;;;;;;;;;;15.70;98.40;;;;;;4950054;28;19962;-74
2022/09/05 06:13:00;;;;;;;;;;;15.70;98.50;;;;;;4950604;28;19934;-74
2022/09/05 06:15:45;;;;;;;;;;;15.70;98.50;;;;;;4945690;28;19926;-76
2022/09/05 06:18:40;;;;;;;;;;;15.70;98.60;;;;;;4948981;28;19961;-75
2022/09/05 06:21:31;;;;;;;;;;;15.70;98.70;;;;;;4946950;28;19933;-75
2022/09/05 06:24:08;;;;;;;;;;;15.70;98.70;;;;;;4922824;28;19962;-74
2022/09/05 06:26:48;;;;;;;;;;;15.70;98.80;;;;;;4933209;29;20017;-74
2022/09/05 06:29:21;;;;;;;;;;;15.70;98.80;;;;;;4950379;28;19984;-76
2022/09/05 06:31:58;;;;;;;;;;;15.60;98.80;;;;;;4947717;28;19933;-76
2022/09/05 06:34:29;;;;;;;;;;;15.60;98.80;;;;;;4932344;29;19957;-76
2022/09/05 06:37:00;;;;;;;;;;;15.60;98.90;;;;;;4951187;28;19933;-76
2022/09/05 06:39:38;;;;;;;;;;;15.60;99.00;;;;;;4948337;28;19938;-76
2022/09/05 06:42:13;;;;;;;;;;;15.60;99.30;;;;;;4937750;28;20312;-76
2022/09/05 06:44:56;;;;;;;;;;;15.60;99.00;;;;;;4946190;28;20048;-76
2022/09/05 06:47:24;;;;;;;;;;;15.60;99.10;;;;;;4948888;28;19942;-76
2022/09/05 06:50:00;;;;;;;;;;;15.60;99.20;;;;;;4948367;28;20349;-76
2022/09/05 06:52:41;;;;;;;;;;;15.60;99.30;;;;;;4945090;28;19976;-76
2022/09/05 06:55:21;;;;;;;;;;;15.60;99.40;;;;;;4936232;28;19997;-76
2022/09/05 06:58:03;;;;;;;;;;;15.60;99.40;;;;;;4952640;28;19926;-76
2022/09/05 07:00:32;;;;;;;;;;;15.60;99.50;;;;;;4912940;28;19937;-76
2022/09/05 07:03:14;;;;;;;;;;;15.60;99.60;;;;;;4951062;28;20009;-76
2022/09/05 07:05:42;;;;;;;;;;;15.60;99.60;;;;;;4948580;28;19938;-76
2022/09/05 07:08:16;;;;;;;;;;;15.70;99.70;;;;;;4944709;28;20020;-76
2022/09/05 07:10:48;;;;;;;;;;;15.60;99.70;;;;;;4927170;29;19941;-76
2022/09/05 07:13:16;;;;;;;;;;;15.60;99.70;;;;;;4949099;28;19930;-76
2022/09/05 07:15:49;;;;;;;;;;;15.60;99.80;;;;;;4941642;28;19942;-76
2022/09/05 07:18:21;;;;;;;;;;;15.60;99.80;;;;;;4945448;28;19982;-76
2022/09/05 07:20:49;;;;;;;;;;;15.70;99.90;;;;;;4943154;28;19926;-76
2022/09/05 07:23:23;;;;;;;;;;;15.70;99.90;;;;;;4945702;28;19926;-76
2022/09/05 07:25:53;;;;;;;;;;;15.70;99.90;;;;;;4947027;28;19934;-76
2022/09/05 07:28:20;;;;;;;;;;;15.70;99.90;;;;;;4951455;28;19981;-76
2022/09/05 07:30:49;;;;;;;;;;;15.70;99.90;;;;;;4948415;28;19934;-76
2022/09/05 07:33:18;;;;;;;;;;;15.70;99.90;;;;;;4944941;28;19962;-76
2022/09/05 07:35:45;;;;;;;;;;;15.70;99.90;;;;;;4940457;28;20326;-76
2022/09/05 07:38:13;;;;;;;;;;;15.70;99.90;;;;;;4949024;28;19944;-77
2022/09/05 07:40:44;;;;;;;;;;;15.70;99.90;;;;;;4943901;28;19956;-76
2022/09/05 07:43:15;;;;;;;;;;;15.70;99.90;;;;;;4950126;28;19933;-76
2022/09/05 07:45:43;;;;;;;;;;;15.80;99.90;;;;;;4948048;28;19965;-76
2022/09/05 07:48:12;;;;;;;;;;;15.70;99.90;;;;;;4945731;28;19927;-77
2022/09/05 07:50:46;;;;;;;;;;;15.70;99.90;;;;;;4947163;28;20029;-77
2022/09/05 07:53:15;;;;;;;;;;;15.70;99.90;;;;;;4946428;28;19930;-77
2022/09/05 07:55:42;;;;;;;;;;;15.70;99.90;;;;;;4950553;28;20312;-76
2022/09/05 07:58:13;;;;;;;;;;;15.70;99.90;;;;;;4944521;28;19931;-76
2022/09/05 08:00:42;;;;;;;;;;;15.70;99.90;;;;;;4948160;28;19931;-77
2022/09/05 08:03:10;;;;;;;;;;;15.80;99.90;;;;;;4949182;28;20386;-77
2022/09/05 08:05:39;;;;;;;;;;;15.80;99.90;;;;;;4944914;28;20413;-76
2022/09/05 08:08:09;;;;;;;;;;;15.80;99.90;;;;;;4953991;28;19927;-76
2022/09/05 08:10:39;;;;;;;;;;;15.80;99.90;;;;;;4949579;28;20348;-76
2022/09/05 08:13:08;;;;;;;;;;;15.80;99.90;;;;;;4946885;28;19941;-76
2022/09/05 08:15:35;;;;;;;;;;;15.80;99.90;;;;;;4933936;29;19927;-76
2022/09/05 08:18:09;;;;;;;;;;;15.80;99.90;;;;;;4948208;28;20064;-76
2022/09/05 08:20:42;;;;;;;;;;;15.80;99.90;;;;;;4945729;28;20018;-76
2022/09/05 08:23:12;;;;;;;;;;;15.80;99.90;;;;;;4946015;28;19930;-76
2022/09/05 08:25:43;;;;;;;;;;;15.90;99.90;;;;;;4950551;28;19966;-76
2022/09/05 08:28:18;;;;;;;;;;;15.80;99.90;;;;;;4948609;28;20436;-76
2022/09/05 08:30:47;;;;;;;;;;;15.90;99.90;;;;;;4942587;28;20021;-76
2022/09/05 08:33:20;;;;;;;;;;;15.90;99.90;;;;;;4946189;28;19985;-76
2022/09/05 08:35:51;;;;;;;;;;;15.90;99.90;;;;;;4946723;28;20650;-76
2022/09/05 08:38:18;;;;;;;;;;;16.00;99.90;;;;;;4947278;28;20013;-76
2022/09/05 08:40:50;;;;;;;;;;;16.00;99.90;;;;;;4940465;28;19961;-76
2022/09/05 08:43:24;;;;;;;;;;;16.00;99.90;;;;;;4951047;28;19973;-76
2022/09/05 08:45:56;;;;;;;;;;;16.00;99.90;;;;;;4948627;28;19931;-76
2022/09/05 08:48:29;;;;;;;;;;;16.00;99.90;;;;;;4953231;28;20442;-76
2022/09/05 08:51:05;;;;;;;;;;;16.00;99.90;;;;;;4945103;28;19927;-77
2022/09/05 08:53:41;;;;;;;;;;;16.00;99.90;;;;;;4944966;28;19949;-77
2022/09/05 08:56:11;;;;;;;;;;;16.00;99.90;;;;;;4948255;28;20397;-76
2022/09/05 08:58:51;;;;;;;;;;;16.10;99.90;;;;;;4950115;28;19931;-76
2022/09/05 09:01:24;;;;;;;;;;;16.10;99.90;;;;;;4943027;28;20017;-76
2022/09/05 09:04:11;;;;;;;;;;;16.10;99.90;;;;;;4948830;28;20341;-76
2022/09/05 09:06:56;;;;;;;;;;;16.10;99.90;;;;;;4935789;28;19934;-76
2022/09/05 09:09:31;;;;;;;;;;;16.10;99.90;;;;;;4935775;28;19957;-76
2022/09/05 09:12:04;;;;;;;;;;;16.20;99.90;;;;;;4945015;28;20368;-76
2022/09/05 09:14:34;;;;;;;;;;;16.20;99.90;;;;;;4935876;29;20412;-76
2022/09/05 09:17:06;;;;;;;;;;;16.20;99.90;;;;;;4923058;28;19934;-76
2022/09/05 09:19:41;;;;;;;;;;;16.20;99.90;;;;;;4941794;28;19937;-76
2022/09/05 09:22:13;;;;;;;;;;;16.20;99.90;;;;;;4946808;28;20021;-76
2022/09/05 09:24:42;;;;;;;;;;;16.20;99.90;;;;;;4945976;28;20151;-76
2022/09/05 09:27:15;;;;;;;;;;;16.20;99.90;;;;;;4945932;28;20038;-76
2022/09/05 09:29:42;;;;;;;;;;;16.20;99.90;;;;;;4950176;28;20386;-76
2022/09/05 09:32:12;;;;;;;;;;;16.30;99.90;;;;;;4951514;28;20001;-76
2022/09/05 09:34:44;;;;;;;;;;;16.30;99.90;;;;;;4945780;28;19941;-76
2022/09/05 09:37:23;;;;;;;;;;;16.30;99.90;;;;;;4942966;28;19958;-76
2022/09/05 09:40:04;;;;;;;;;;;16.30;99.90;;;;;;4950160;28;19982;-76
2022/09/05 09:42:37;;;;;;;;;;;16.40;99.90;;;;;;4942482;28;20111;-76
2022/09/05 09:45:14;;;;;;;;;;;16.40;99.90;;;;;;4948352;28;20389;-76
2022/09/05 09:47:53;;;;;;;;;;;16.40;99.90;;;;;;4929005;29;20013;-76
2022/09/05 09:50:27;;;;;;;;;;;16.40;99.90;;;;;;4942977;28;19937;-76
2022/09/05 09:53:02;;;;;;;;;;;16.40;99.90;;;;;;4948308;28;20055;-76
2022/09/05 09:55:39;;;;;;;;;;;16.40;99.90;;;;;;4950673;28;19927;-75
2022/09/05 09:58:24;;;;;;;;;;;16.50;99.90;;;;;;4944439;28;19930;-76
2022/09/05 10:00:54;;;;;;;;;;;16.50;99.90;;;;;;4946821;28;19962;-76
2022/09/05 10:03:33;;;;;;;;;;;16.50;99.90;;;;;;4945814;28;20370;-76
2022/09/05 10:06:31;;;;;;;;;;;16.50;99.90;;;;;;4940466;29;19926;-76
2022/09/05 10:09:07;;;;;;;;;;;16.60;99.90;;;;;;4947785;28;19935;-76
2022/09/05 10:11:40;;;;;;;;;;;16.60;99.90;;;;;;4948751;28;20400;-77
2022/09/05 10:14:25;;;;;;;;;;;16.60;99.90;;;;;;4944879;28;19926;-76
2022/09/05 10:17:06;;;;;;;;;;;16.60;99.90;;;;;;4916118;28;19934;-76
2022/09/05 10:19:48;;;;;;;;;;;16.60;99.90;;;;;;4949481;28;20316;-76
2022/09/05 10:22:26;;;;;;;;;;;16.70;99.90;;;;;;4922329;29;19930;-76
2022/09/05 10:25:06;;;;;;;;;;;16.70;99.90;;;;;;4952827;28;19934;-76
2022/09/05 10:27:39;;;;;;;;;;;16.70;99.90;;;;;;4946405;28;19973;-77
2022/09/05 10:30:09;;;;;;;;;;;16.80;99.90;;;;;;4951870;28;19927;-76
2022/09/05 10:32:43;;;;;;;;;;;16.80;99.90;;;;;;4949465;28;20021;-76
2022/09/05 10:35:18;;;;;;;;;;;16.80;99.90;;;;;;4931172;28;19977;-76
2022/09/05 10:37:48;;;;;;;;;;;16.90;99.90;;;;;;4928547;28;20020;-76
2022/09/05 10:40:17;;;;;;;;;;;16.90;99.90;;;;;;4941560;28;19966;-76
2022/09/05 10:42:48;;;;;;;;;;;16.90;99.90;;;;;;4935549;28;19966;-77
2022/09/05 10:45:16;;;;;;;;;;;16.90;99.90;;;;;;4948429;28;19926;-76
2022/09/05 10:47:47;;;;;;;;;;;16.90;99.90;;;;;;4950491;28;20408;-76
2022/09/05 10:50:20;;;;;;;;;;;17.00;99.90;;;;;;4951837;28;20018;-77
2022/09/05 10:53:05;;;;;;;;;;;17.00;99.90;;;;;;5013988;23;19929;-75
2022/09/05 10:55:33;;;;;;;;;;;17.00;99.90;;;;;;4982971;28;19980;-73
2022/09/05 10:58:05;;;;;;;;;;;17.00;99.90;;;;;;4971589;28;19927;-73
2022/09/05 11:00:47;;;;;;;;;;;17.10;99.90;;;;;;4961864;28;19926;-76
2022/09/05 11:03:21;;;;;;;;;;;17.10;99.90;;;;;;4966111;28;19926;-74
2022/09/05 11:05:53;;;;;;;;;;;17.10;99.90;;;;;;4967913;28;20300;-73
2022/09/05 11:08:24;;;;;;;;;;;17.10;99.90;;;;;;4963961;28;19973;-73
2022/09/05 11:10:54;;;;;;;;;;;17.10;99.90;;;;;;4954980;28;20363;-73
2022/09/05 11:13:31;;;;;;;;;;;17.10;99.90;;;;;;4965207;28;19973;-73
2022/09/05 11:16:03;;;;;;;;;;;17.20;99.90;;;;;;4963347;28;21268;-73
2022/09/05 11:18:49;;;;;;;;;;;17.20;99.90;;;;;;4963656;28;20012;-76
2022/09/05 11:21:18;;;;;;;;;;;17.20;99.90;;;;;;4967877;28;19934;-75
2022/09/05 11:23:47;;;;;;;;;;;17.30;99.90;;;;;;4969448;28;19933;-73
2022/09/05 11:26:19;;;;;;;;;;;17.30;99.90;;;;;;4960953;28;19926;-75
2022/09/05 11:28:50;;;;;;;;;;;17.30;99.90;;;;;;4967185;28;19933;-75
2022/09/05 11:31:19;;;;;;;;;;;17.30;99.90;;;;;;4961098;28;19934;-74
2022/09/05 11:33:58;;;;;;;;;;;17.40;99.90;;;;;;4968338;28;20013;-76
2022/09/05 11:36:26;;;;;;;;;;;17.40;99.90;;;;;;4944970;28;19933;-75
2022/09/05 11:39:12;;;;;;;;;;;17.40;99.90;;;;;;4952662;28;19930;-73
2022/09/05 11:41:47;;;;;;;;;;;17.40;99.90;;;;;;4964448;28;19966;-73
2022/09/05 11:44:35;;;;;;;;;;;17.50;99.90;;;;;;4964910;28;19966;-74
2022/09/05 11:47:23;;;;;;;;;;;17.50;99.90;;;;;;4967424;28;19930;-75
2022/09/05 11:50:05;;;;;;;;;;;17.50;99.90;;;;;;4945206;28;20399;-75
2022/09/05 11:52:47;;;;;;;;;;;17.60;99.90;;;;;;4947026;28;19934;-74
2022/09/05 11:55:16;;;;;;;;;;;;;;;;;;4962336;28;20459;-74
2022/09/05 11:57:48;;;;;;;;;;;17.60;99.90;;;;;;4964468;28;20033;-75
2022/09/05 12:00:18;;;;;;;;;;;17.70;99.90;;;;;;4970267;28;19926;-74
2022/09/05 12:02:57;;;;;;;;;;;17.70;99.90;;;;;;4963465;28;19926;-73
2022/09/05 12:05:40;;;;;;;;;;;17.70;99.90;;;;;;4949307;28;19926;-73
2022/09/05 12:08:09;;;;;;;;;;;17.80;99.90;;;;;;4948337;28;20455;-73
2022/09/05 12:10:40;;;;;;;;;;;17.80;99.90;;;;;;4970264;28;20037;-74
2022/09/05 12:13:16;;;;;;;;;;;17.80;99.90;;;;;;4962255;28;20008;-72
2022/09/05 12:15:45;;;;;;;;;;;17.90;99.90;;;;;;4955794;28;19927;-73
2022/09/05 12:18:18;;;;;;;;;;;17.90;99.90;;;;;;4964706;28;20150;-74
2022/09/05 12:20:51;;;;;;;;;;;18.00;99.90;;;;;;4967391;28;20305;-73
2022/09/05 12:23:25;;;;;;;;;;;18.00;99.90;;;;;;4953719;28;19965;-74
2022/09/05 12:25:57;;;;;;;;;;;18.10;99.90;;;;;;4967555;28;19981;-74
2022/09/05 12:28:26;;;;;;;;;;;18.10;99.90;;;;;;4964090;28;19949;-73
2022/09/05 12:31:08;;;;;;;;;;;18.10;99.90;;;;;;4964448;28;19936;-73
2022/09/05 12:33:36;;;;;;;;;;;18.20;99.90;;;;;;4967512;28;19981;-73
2022/09/05 12:36:08;;;;;;;;;;;18.30;99.90;;;;;;4964243;28;19940;-73
2022/09/05 12:38:38;;;;;;;;;;;18.30;99.90;;;;;;4966645;28;19930;-73
2022/09/05 12:41:07;;;;;;;;;;;18.40;99.90;;;;;;4952065;28;19926;-74
2022/09/05 12:43:36;;;;;;;;;;;18.40;99.90;;;;;;4961276;28;20384;-74
2022/09/05 12:46:07;;;;;;;;;;;18.40;99.90;;;;;;4944314;28;19981;-73
2022/09/05 12:48:38;;;;;;;;;;;18.50;99.90;;;;;;4966951;28;19926;-73
2022/09/05 12:51:08;;;;;;;;;;;18.50;99.90;;;;;;4964614;28;20088;-73
2022/09/05 12:53:44;;;;;;;;;;;18.60;99.90;;;;;;4963767;28;19948;-72
2022/09/05 12:56:15;;;;;;;;;;;18.60;99.90;;;;;;4961304;28;20306;-73
2022/09/05 12:58:44;;;;;;;;;;;18.70;99.90;;;;;;4964506;28;19961;-74
2022/09/05 13:01:21;;;;;;;;;;;18.70;99.90;;;;;;4947781;28;19958;-74
2022/09/05 13:03:51;;;;;;;;;;;18.80;99.90;;;;;;4965534;28;20337;-73
2022/09/05 13:06:23;;;;;;;;;;;18.80;99.90;;;;;;4954369;28;19988;-73
2022/09/05 13:08:52;;;;;;;;;;;18.90;99.90;;;;;;4949358;28;20400;-74
2022/09/05 13:11:20;;;;;;;;;;;18.90;99.90;;;;;;4963808;28;20021;-74
2022/09/05 13:13:51;;;;;;;;;;;19.00;99.90;;;;;;4964375;28;19966;-73
2022/09/05 13:16:21;;;;;;;;;;;19.00;99.90;;;;;;4961122;28;20321;-73
2022/09/05 13:18:50;;;;;;;;;;;19.10;99.90;;;;;;4964345;28;19926;-73
2022/09/05 13:21:19;;;;;;;;;;;19.10;99.90;;;;;;4947675;28;19930;-74
2022/09/05 13:23:47;;;;;;;;;;;19.20;99.90;;;;;;4965470;28;19973;-74
2022/09/05 13:26:16;;;;;;;;;;;19.20;99.90;;;;;;4944588;28;19934;-73
2022/09/05 13:28:50;;;;;;;;;;;19.30;99.90;;;;;;4952677;28;19933;-73
2022/09/05 13:31:39;;;;;;;;;;;19.40;99.90;;;;;;4966946;28;20393;-75
2022/09/05 13:34:11;;;;;;;;;;;19.40;99.90;;;;;;4962559;28;19939;-75
2022/09/05 13:36:41;;;;;;;;;;;19.50;99.90;;;;;;4966500;28;19977;-75
2022/09/05 13:39:11;;;;;;;;;;;19.60;99.90;;;;;;4951358;28;20175;-75
2022/09/05 13:41:43;;;;;;;;;;;19.60;99.90;;;;;;4971764;28;19926;-75
2022/09/05 13:44:12;;;;;;;;;;;19.70;99.90;;;;;;4966790;28;19934;-75
2022/09/05 13:46:46;;;;;;;;;;;19.70;99.90;;;;;;4967362;28;19927;-75
2022/09/05 13:49:20;;;;;;;;;;;19.80;99.90;;;;;;4968600;28;20601;-75
2022/09/05 13:51:49;;;;;;;;;;;20.00;99.90;;;;;;4970770;28;20312;-75
2022/09/05 13:54:37;;;;;;;;;;;20.00;99.90;;;;;;4968514;28;20398;-74
2022/09/05 13:57:22;;;;;;;;;;;20.10;99.90;;;;;;4964340;28;19929;-75
2022/09/05 14:00:03;;;;;;;;;;;20.20;99.90;;;;;;4951339;28;20361;-75
2022/09/05 14:02:43;;;;;;;;;;;20.20;99.90;;;;;;4964213;28;20024;-76
2022/09/05 14:05:26;;;;;;;;;;;20.20;99.90;;;;;;4970736;28;19930;-75
2022/09/05 14:08:17;;;;;;;;;;;20.30;99.90;;;;;;4966827;28;19934;-75
2022/09/05 14:10:54;;;;;;;;;;;20.30;99.90;;;;;;4947973;28;20385;-75
2022/09/05 14:13:22;;;;;;;;;;;20.40;99.90;;;;;;4966159;28;19930;-76
2022/09/05 14:15:53;;;;;;;;;;;20.40;99.90;;;;;;4967985;28;19926;-75
2022/09/05 14:18:21;;;;;;;;;;;20.50;99.90;;;;;;4971234;28;19981;-75
2022/09/05 14:23:42;;;;;;;;;;;20.60;99.90;;;;;;4970665;28;19926;-75
2022/09/05 14:26:13;;;;;;;;;;;20.60;99.90;;;;;;4972539;28;20020;-75
2022/09/05 14:28:44;;;;;;;;;;;20.70;99.90;;;;;;4966120;28;19927;-75
2022/09/05 14:31:13;;;;;;;;;;;20.70;99.90;;;;;;4969315;28;19930;-75
2022/09/05 14:33:44;;;;;;;;;;;20.80;99.90;;;;;;4971128;28;19926;-75
2022/09/05 14:36:19;;;;;;;;;;;20.80;99.90;;;;;;4969818;28;20357;-75
2022/09/05 14:39:02;;;;;;;;;;;20.90;99.90;;;;;;4965313;28;19934;-75
2022/09/05 14:41:49;;;;;;;;;;;20.90;99.90;;;;;;4954996;28;19948;-75
2022/09/05 14:44:32;;;;;;;;;;;20.90;99.90;;;;;;4971417;28;19930;-75
2022/09/05 14:47:13;;;;;;;;;;;21.00;99.90;;;;;;4959625;28;19957;-75
2022/09/05 14:49:52;;;;;;;;;;;21.00;99.90;;;;;;4962580;28;20468;-75
2022/09/05 14:52:24;;;;;;;;;;;21.10;99.90;;;;;;4963122;28;19934;-76
2022/09/05 14:54:52;;;;;;;;;;;21.10;99.90;;;;;;4948242;28;19930;-75
2022/09/05 14:57:20;;;;;;;;;;;21.20;99.90;;;;;;4970354;28;19941;-74
2022/09/05 14:59:48;;;;;;;;;;;21.20;99.90;;;;;;4968562;28;19926;-74
2022/09/05 15:02:20;;;;;;;;;;;21.20;99.90;;;;;;4957969;28;19926;-73